Etusivu
METAR-TAF:

METAR-TAF

Lentoasemat :

Nebraska City Municipal Airport

Nebraska City, Nebraska, Yhdysvallat

Leveyspiiri: 40-36N, Pituuspiiri: 095-51W, korkeus merenpinnasta: 354 m

Tämänhetkinen sää

Tämä raportti tehtiin 28 minuuttia sitten, kello 16.35 UTC
Tuuli 16 kn koillisesta puuskistuen 21 kn:hen
Lämpötila 23°C
Kosteus 78%
Ilmanpaine 1016 hPa
Näkyvyys: 16.1 km
selkeää

METAR: KAFK 101635Z AUTO 04016G21KT 10SM CLR 23/19 A3000 RMK AO2 T02340193

Aika: 12:03 (17:03 UTC)


TAF: puuttuu

Säähavainnot ja -ennusteet yli 4000 lentoasemalta (METAR- ja TAF-raportit).

Käytössä olevat sääasemat on merkitty karttaan keltaisilla ja punaisilla pisteillä.

Aseta hiiri pisteen päälle nähdäksesi sääaseman nimen.

Klikkaa sitten nähdäksesi säähavainnot ja -ennusteet.

Kartan vaihtaminen: klikkaa mustalla rastilla varustettuja vihreitä pisteitä, niin voit zoomata sisään; viivalla varustettua vihreää pistettä, niin voit zoomata ulos tai vihreitä nuolia, niin pääset viereisille kartoille.


METAR-TAF: